createdAt,value
2022-08-27T00:01:27.556Z,17.47
2022-08-27T00:03:55.334Z,17.23
2022-08-27T00:06:24.683Z,17.22
2022-08-27T00:08:52.334Z,17.37
2022-08-27T00:11:21.823Z,17.13
2022-08-27T00:13:48.952Z,17.18
2022-08-27T00:16:16.930Z,17.35
2022-08-27T00:18:47.959Z,17.32
2022-08-27T00:21:15.485Z,17.29
2022-08-27T00:23:42.049Z,17.22
2022-08-27T00:26:09.118Z,17.28
2022-08-27T00:28:35.710Z,17.36
2022-08-27T00:31:02.300Z,17.32
2022-08-27T00:33:30.486Z,17.20
2022-08-27T00:35:57.599Z,17.37
2022-08-27T00:38:24.854Z,17.33
2022-08-27T00:40:52.459Z,17.15
2022-08-27T00:43:31.918Z,17.25
2022-08-27T00:46:04.896Z,17.12
2022-08-27T00:48:35.171Z,17.07
2022-08-27T00:51:02.392Z,17.26
2022-08-27T00:53:33.111Z,17.33
2022-08-27T00:56:08.399Z,17.46
2022-08-27T00:58:41.034Z,17.39
2022-08-27T01:01:11.239Z,17.42
2022-08-27T01:03:38.527Z,17.35
2022-08-27T01:06:09.795Z,17.35
2022-08-27T01:08:39.386Z,17.20
2022-08-27T01:11:07.036Z,17.23
2022-08-27T01:13:44.201Z,17.11
2022-08-27T01:16:26.249Z,17.09
2022-08-27T01:18:54.298Z,16.95
2022-08-27T01:21:36.030Z,16.94
2022-08-27T01:24:25.000Z,16.77
2022-08-27T01:26:51.794Z,16.73
2022-08-27T01:29:18.810Z,16.60
2022-08-27T01:31:45.324Z,16.45
2022-08-27T01:34:11.768Z,16.44
2022-08-27T01:36:38.151Z,16.38
2022-08-27T01:39:04.597Z,16.24
2022-08-27T01:41:32.447Z,16.22
2022-08-27T01:43:59.467Z,16.23
2022-08-27T01:46:27.695Z,16.09
2022-08-27T01:48:55.540Z,16.07
2022-08-27T01:51:22.000Z,15.92
2022-08-27T01:53:48.567Z,15.94
2022-08-27T01:56:15.597Z,15.82
2022-08-27T01:58:42.542Z,15.71
2022-08-27T02:01:12.953Z,15.66
2022-08-27T02:03:40.687Z,15.49
2022-08-27T02:06:09.868Z,15.65
2022-08-27T02:08:36.668Z,15.70
2022-08-27T02:11:03.982Z,15.64
2022-08-27T02:13:30.467Z,15.64
2022-08-27T02:15:57.121Z,15.57
2022-08-27T02:18:23.768Z,15.59
2022-08-27T02:20:50.200Z,15.57
2022-08-27T02:23:18.131Z,15.73
2022-08-27T02:25:47.181Z,15.65
2022-08-27T02:28:14.721Z,15.70
2022-08-27T02:30:41.574Z,15.75
2022-08-27T02:33:08.041Z,15.66
2022-08-27T02:35:38.819Z,15.88
2022-08-27T02:38:06.492Z,15.98
2022-08-27T02:40:33.339Z,16.01
2022-08-27T02:42:59.775Z,16.02
2022-08-27T02:45:26.591Z,16.03
2022-08-27T02:47:53.936Z,16.16
2022-08-27T02:50:20.764Z,16.07
2022-08-27T02:52:53.383Z,16.08
2022-08-27T02:55:20.709Z,16.13
2022-08-27T02:57:47.241Z,16.22
2022-08-27T03:00:17.807Z,16.16
2022-08-27T03:02:44.834Z,16.18
2022-08-27T03:05:12.847Z,16.30
2022-08-27T03:07:40.231Z,16.27
2022-08-27T03:10:07.838Z,16.26
2022-08-27T03:12:36.250Z,16.36
2022-08-27T03:15:04.674Z,16.41
2022-08-27T03:17:49.762Z,16.46
2022-08-27T03:20:16.482Z,16.37
2022-08-27T03:22:42.870Z,16.45
2022-08-27T03:25:10.296Z,16.53
2022-08-27T03:27:37.196Z,16.57
2022-08-27T03:30:10.523Z,16.65
2022-08-27T03:32:37.263Z,16.61
2022-08-27T03:35:04.244Z,16.66
2022-08-27T03:37:30.712Z,16.66
2022-08-27T03:39:57.250Z,16.58
2022-08-27T03:42:23.783Z,16.58
2022-08-27T03:44:50.192Z,16.48
2022-08-27T03:47:16.650Z,16.61
2022-08-27T03:49:43.384Z,16.54
2022-08-27T03:52:10.563Z,16.29
2022-08-27T03:54:38.246Z,16.46
2022-08-27T03:57:05.584Z,16.40
2022-08-27T03:59:32.214Z,16.44
2022-08-27T04:01:59.435Z,16.52
2022-08-27T04:04:26.022Z,16.52
2022-08-27T04:06:52.452Z,16.40
2022-08-27T04:09:18.990Z,16.28
2022-08-27T04:11:45.382Z,16.40
2022-08-27T04:14:25.336Z,16.31
2022-08-27T04:16:56.092Z,16.10
2022-08-27T04:19:27.229Z,16.14
2022-08-27T04:21:58.016Z,15.92
2022-08-27T04:24:24.863Z,15.90
2022-08-27T04:26:51.477Z,15.86
2022-08-27T04:29:17.875Z,15.86
2022-08-27T04:31:44.441Z,15.84
2022-08-27T04:34:10.947Z,15.65
2022-08-27T04:36:37.354Z,15.61
2022-08-27T04:39:03.856Z,15.62
2022-08-27T04:41:33.321Z,15.59
2022-08-27T04:44:05.072Z,15.36
2022-08-27T04:46:35.256Z,15.56
2022-08-27T04:49:10.295Z,15.43
2022-08-27T04:51:37.872Z,15.46
2022-08-27T04:54:07.224Z,15.49
2022-08-27T04:56:35.369Z,15.55
2022-08-27T04:59:04.120Z,15.35
2022-08-27T05:01:31.113Z,15.56
2022-08-27T05:03:58.652Z,15.50
2022-08-27T05:06:25.939Z,15.41
2022-08-27T05:08:54.309Z,15.49
2022-08-27T05:11:23.430Z,15.35
2022-08-27T05:13:50.131Z,15.39
2022-08-27T05:16:22.814Z,15.30
2022-08-27T05:18:51.798Z,15.29
2022-08-27T05:21:22.429Z,15.17
2022-08-27T05:23:50.226Z,15.39
2022-08-27T05:26:16.821Z,15.51
2022-08-27T05:28:44.043Z,15.62
2022-08-27T05:31:13.863Z,15.57
2022-08-27T05:33:42.644Z,15.55
2022-08-27T05:36:16.552Z,15.60
2022-08-27T05:38:43.242Z,15.70
2022-08-27T05:41:12.493Z,15.86
2022-08-27T05:43:41.765Z,15.82
2022-08-27T05:46:12.196Z,15.86
2022-08-27T05:48:39.940Z,15.99
2022-08-27T05:51:25.222Z,15.89
2022-08-27T05:54:08.886Z,15.92
2022-08-27T05:56:37.874Z,16.14
2022-08-27T05:59:24.021Z,16.13
2022-08-27T06:01:52.132Z,16.23
2022-08-27T06:04:20.525Z,16.31
2022-08-27T06:06:47.719Z,16.40
2022-08-27T06:09:20.599Z,16.50
2022-08-27T06:11:48.080Z,16.56
2022-08-27T06:14:14.952Z,16.74
2022-08-27T06:16:41.808Z,16.80
2022-08-27T06:19:10.124Z,16.93
2022-08-27T06:21:36.923Z,16.99
2022-08-27T06:24:03.594Z,17.11
2022-08-27T06:26:30.159Z,17.26
2022-08-27T06:29:01.819Z,17.40
2022-08-27T06:31:28.532Z,17.50
2022-08-27T06:34:00.696Z,17.70
2022-08-27T06:36:35.500Z,17.86
2022-08-27T06:39:01.908Z,17.95
2022-08-27T06:41:29.122Z,18.04
2022-08-27T06:43:56.688Z,18.02
2022-08-27T06:46:25.271Z,18.43
2022-08-27T06:48:53.968Z,18.64
2022-08-27T06:51:27.251Z,18.78
2022-08-27T06:53:55.351Z,19.09
2022-08-27T06:56:22.900Z,19.44
2022-08-27T06:58:53.383Z,20.29
2022-08-27T07:01:23.983Z,20.31
2022-08-27T07:03:50.624Z,20.55
2022-08-27T07:06:18.093Z,21.04
2022-08-27T07:08:48.526Z,21.10
2022-08-27T07:11:21.216Z,21.11
2022-08-27T07:13:48.467Z,20.97
2022-08-27T07:16:19.254Z,20.73
2022-08-27T07:18:55.515Z,21.02
2022-08-27T07:21:22.956Z,20.39
2022-08-27T07:23:51.195Z,20.15
2022-08-27T07:26:19.330Z,20.26
2022-08-27T07:28:47.609Z,20.43
2022-08-27T07:31:20.727Z,20.41
2022-08-27T07:33:52.594Z,20.12
2022-08-27T07:36:20.875Z,20.48
2022-08-27T07:38:56.579Z,20.49
2022-08-27T07:41:31.312Z,20.48
2022-08-27T07:44:18.271Z,20.38
2022-08-27T07:46:47.952Z,20.18
2022-08-27T07:49:19.099Z,20.30
2022-08-27T07:51:46.072Z,20.22
2022-08-27T07:54:12.513Z,20.20
2022-08-27T07:56:39.223Z,20.14
2022-08-27T07:59:05.710Z,20.35
2022-08-27T08:01:32.265Z,20.42
2022-08-27T08:03:58.938Z,20.39
2022-08-27T08:06:25.872Z,20.19
2022-08-27T08:08:52.492Z,20.21
2022-08-27T08:11:20.313Z,20.40
2022-08-27T08:13:47.546Z,21.55
2022-08-27T08:16:14.815Z,22.08
2022-08-27T08:18:41.730Z,22.77
2022-08-27T08:21:12.176Z,22.38
2022-08-27T08:23:39.024Z,21.97
2022-08-27T08:26:05.636Z,21.84
2022-08-27T08:28:32.045Z,21.68
2022-08-27T08:30:58.646Z,21.84
2022-08-27T08:33:27.409Z,21.65
2022-08-27T08:35:54.410Z,21.67
2022-08-27T08:38:21.222Z,21.31
2022-08-27T08:40:50.381Z,20.85
2022-08-27T08:43:31.641Z,20.91
2022-08-27T08:46:03.493Z,21.77
2022-08-27T08:48:31.159Z,22.39
2022-08-27T08:51:05.334Z,23.07
2022-08-27T08:53:50.881Z,23.48
2022-08-27T08:56:27.271Z,23.09
2022-08-27T08:59:08.159Z,22.89
2022-08-27T09:01:35.328Z,22.60
2022-08-27T09:04:09.032Z,22.23
2022-08-27T09:06:50.831Z,22.00
2022-08-27T09:09:33.586Z,21.73
2022-08-27T09:12:03.645Z,21.36
2022-08-27T09:14:47.407Z,21.69
2022-08-27T09:17:14.432Z,21.48
2022-08-27T09:19:42.818Z,21.29
2022-08-27T09:22:29.942Z,21.36
2022-08-27T09:25:21.047Z,21.58
2022-08-27T09:27:49.148Z,21.11
2022-08-27T09:30:30.561Z,20.93
2022-08-27T09:33:00.768Z,21.00
2022-08-27T09:35:34.365Z,21.21
2022-08-27T09:38:02.616Z,20.86
2022-08-27T09:40:33.523Z,21.30
2022-08-27T09:43:09.194Z,21.06
2022-08-27T09:45:35.972Z,21.05
2022-08-27T09:48:11.418Z,20.84
2022-08-27T09:50:45.790Z,21.01
2022-08-27T09:53:42.466Z,21.17
2022-08-27T09:56:11.009Z,21.15
2022-08-27T09:58:43.121Z,21.58
2022-08-27T10:01:38.584Z,21.36
2022-08-27T10:04:12.750Z,21.36
2022-08-27T10:06:46.416Z,21.14
2022-08-27T10:09:19.907Z,21.17
2022-08-27T10:11:58.489Z,21.08
2022-08-27T10:14:33.028Z,21.04
2022-08-27T10:17:08.642Z,21.12
2022-08-27T10:19:53.588Z,20.78
2022-08-27T10:22:45.624Z,20.79
2022-08-27T10:25:17.748Z,20.75
2022-08-27T10:27:59.568Z,20.66
2022-08-27T10:30:43.979Z,20.74
2022-08-27T10:33:23.837Z,20.85
2022-08-27T10:36:01.926Z,21.11
2022-08-27T10:38:30.222Z,21.22
2022-08-27T10:41:10.139Z,21.03
2022-08-27T10:43:59.453Z,21.17
2022-08-27T10:46:54.020Z,21.20
2022-08-27T10:49:52.782Z,21.18
2022-08-27T10:52:43.083Z,21.41
2022-08-27T10:55:17.260Z,21.49
2022-08-27T10:58:09.353Z,21.79
2022-08-27T11:00:46.408Z,21.86
2022-08-27T11:03:20.334Z,22.29
2022-08-27T11:05:49.743Z,22.55
2022-08-27T11:08:18.956Z,22.45
2022-08-27T11:10:53.619Z,22.84
2022-08-27T11:13:38.414Z,23.55
2022-08-27T11:16:20.712Z,23.57
2022-08-27T11:18:58.116Z,23.68
2022-08-27T11:21:25.294Z,23.50
2022-08-27T11:24:00.571Z,23.48
2022-08-27T11:26:31.544Z,23.33
2022-08-27T11:29:01.842Z,23.16
2022-08-27T11:31:49.152Z,23.08
2022-08-27T11:34:39.934Z,24.37
2022-08-27T11:37:30.145Z,25.30
2022-08-27T11:40:28.035Z,25.29
2022-08-27T11:43:04.458Z,23.93
2022-08-27T11:45:39.894Z,23.28
2022-08-27T11:48:21.742Z,22.59
2022-08-27T11:51:03.111Z,22.66
2022-08-27T11:53:51.866Z,23.21
2022-08-27T11:56:36.911Z,23.26
2022-08-27T11:59:24.200Z,23.01
2022-08-27T12:01:53.376Z,23.79
2022-08-27T12:04:32.471Z,25.22
2022-08-27T12:07:21.599Z,24.66
2022-08-27T12:09:57.699Z,25.04
2022-08-27T12:12:49.503Z,24.33
2022-08-27T12:15:38.945Z,23.03
2022-08-27T12:18:31.720Z,25.09
2022-08-27T12:21:11.560Z,25.99
2022-08-27T12:24:14.827Z,25.24
2022-08-27T12:26:53.945Z,25.08
2022-08-27T12:29:24.256Z,25.09
2022-08-27T12:32:03.237Z,25.17
2022-08-27T12:34:41.359Z,25.01
2022-08-27T12:37:09.773Z,24.74
2022-08-27T12:39:39.090Z,24.41
2022-08-27T12:42:13.625Z,25.86
2022-08-27T12:44:40.132Z,26.08
2022-08-27T12:47:11.757Z,25.54
2022-08-27T12:49:55.541Z,24.42
2022-08-27T12:52:50.214Z,24.61
2022-08-27T12:55:34.771Z,25.02
2022-08-27T12:58:12.244Z,26.47
2022-08-27T13:00:56.508Z,25.33
2022-08-27T13:03:40.223Z,23.74
2022-08-27T13:06:33.701Z,23.50
2022-08-27T13:09:04.010Z,24.31
2022-08-27T13:11:33.577Z,25.21
2022-08-27T13:14:05.946Z,24.73
2022-08-27T13:16:33.242Z,25.08
2022-08-27T13:19:01.900Z,25.57
2022-08-27T13:21:30.203Z,24.35
2022-08-27T13:24:02.534Z,23.78
2022-08-27T13:26:34.015Z,23.10
2022-08-27T13:29:03.654Z,24.54
2022-08-27T13:31:31.837Z,24.83
2022-08-27T13:33:59.094Z,24.27
2022-08-27T13:36:32.183Z,24.54
2022-08-27T13:39:00.839Z,24.71
2022-08-27T13:41:34.152Z,24.03
2022-08-27T13:44:14.352Z,23.22
2022-08-27T13:46:47.939Z,23.05
2022-08-27T13:49:22.184Z,23.25
2022-08-27T13:51:50.698Z,23.74
2022-08-27T13:54:18.858Z,23.80
2022-08-27T13:56:48.069Z,25.28
2022-08-27T13:59:24.119Z,25.42
2022-08-27T14:02:01.701Z,25.24
2022-08-27T14:04:45.348Z,24.41
2022-08-27T14:07:23.854Z,24.86
2022-08-27T14:10:02.744Z,25.31
2022-08-27T14:12:38.052Z,25.01
2022-08-27T14:15:22.679Z,23.73
2022-08-27T14:17:50.310Z,23.40
2022-08-27T14:20:21.583Z,23.27
2022-08-27T14:22:48.610Z,22.97
2022-08-27T14:25:16.385Z,22.90
2022-08-27T14:27:52.923Z,23.41
2022-08-27T14:30:25.164Z,23.13
2022-08-27T14:32:58.362Z,22.71
2022-08-27T14:35:25.303Z,23.22
2022-08-27T14:37:51.959Z,23.81
2022-08-27T14:40:18.598Z,24.51
2022-08-27T14:42:45.344Z,23.22
2022-08-27T14:45:11.848Z,23.42
2022-08-27T14:47:40.856Z,23.32
2022-08-27T14:50:11.082Z,23.04
2022-08-27T14:52:39.844Z,23.64
2022-08-27T14:55:10.523Z,23.58
2022-08-27T14:57:38.733Z,23.11
2022-08-27T15:00:07.639Z,22.96
2022-08-27T15:02:34.903Z,23.36
2022-08-27T15:05:01.475Z,23.00
2022-08-27T15:07:37.851Z,22.71
2022-08-27T15:10:04.893Z,22.18
2022-08-27T15:12:31.927Z,22.34
2022-08-27T15:14:58.637Z,22.21
2022-08-27T15:17:35.127Z,22.17
2022-08-27T15:20:08.732Z,21.81
2022-08-27T15:22:37.276Z,21.52
2022-08-27T15:25:06.202Z,21.45
2022-08-27T15:27:38.491Z,21.41
2022-08-27T15:30:08.877Z,21.78
2022-08-27T15:32:39.559Z,21.41
2022-08-27T15:35:12.321Z,21.17
2022-08-27T15:37:39.123Z,21.12
2022-08-27T15:40:07.076Z,21.00
2022-08-27T15:42:33.538Z,20.99
2022-08-27T15:44:59.966Z,21.22
2022-08-27T15:47:26.431Z,21.27
2022-08-27T15:49:52.831Z,21.48
2022-08-27T15:52:21.742Z,22.38
2022-08-27T15:54:49.088Z,22.30
2022-08-27T15:57:17.071Z,22.11
2022-08-27T15:59:44.689Z,22.01
2022-08-27T16:02:20.860Z,21.30
2022-08-27T16:04:49.323Z,20.94
2022-08-27T16:07:20.134Z,21.00
2022-08-27T16:09:48.014Z,21.00
2022-08-27T16:12:26.751Z,20.95
2022-08-27T16:14:54.135Z,20.75
2022-08-27T16:17:21.177Z,21.08
2022-08-27T16:19:47.759Z,21.02
2022-08-27T16:22:14.676Z,20.86
2022-08-27T16:24:41.070Z,20.86
2022-08-27T16:27:07.717Z,20.60
2022-08-27T16:29:34.369Z,20.34
2022-08-27T16:32:01.539Z,20.39
2022-08-27T16:34:28.757Z,20.87
2022-08-27T16:36:56.064Z,20.79
2022-08-27T16:39:22.933Z,20.54
2022-08-27T16:41:50.068Z,20.23
2022-08-27T16:44:17.477Z,20.45
2022-08-27T16:46:43.905Z,20.44
2022-08-27T16:49:29.123Z,20.36
2022-08-27T16:51:55.677Z,20.20
2022-08-27T16:54:22.355Z,20.24
2022-08-27T16:56:49.675Z,20.37
2022-08-27T16:59:16.412Z,20.20
2022-08-27T17:01:44.359Z,19.90
2022-08-27T17:04:18.413Z,19.95
2022-08-27T17:06:51.669Z,19.86
2022-08-27T17:09:19.164Z,19.84
2022-08-27T17:11:50.571Z,19.71
2022-08-27T17:14:16.988Z,19.70
2022-08-27T17:16:43.480Z,19.74
2022-08-27T17:19:11.009Z,19.73
2022-08-27T17:21:45.198Z,19.86
2022-08-27T17:24:12.754Z,19.76
2022-08-27T17:26:39.592Z,19.41
2022-08-27T17:29:06.079Z,19.39
2022-08-27T17:31:36.827Z,19.40
2022-08-27T17:34:05.543Z,19.41
2022-08-27T17:36:33.425Z,19.39
2022-08-27T17:39:02.479Z,19.48
2022-08-27T17:41:34.097Z,19.35
2022-08-27T17:44:05.031Z,19.42
2022-08-27T17:46:31.511Z,19.25
2022-08-27T17:48:58.016Z,18.97
2022-08-27T17:51:24.519Z,18.95
2022-08-27T17:53:57.198Z,19.07
2022-08-27T17:56:26.875Z,18.82
2022-08-27T17:58:54.192Z,18.75
2022-08-27T18:01:28.390Z,18.80
2022-08-27T18:03:57.248Z,18.62
2022-08-27T18:06:25.410Z,18.63
2022-08-27T18:08:52.485Z,18.41
2022-08-27T18:11:19.588Z,18.30
2022-08-27T18:13:52.177Z,18.29
2022-08-27T18:16:18.966Z,18.05
2022-08-27T18:18:45.428Z,17.97
2022-08-27T18:21:12.214Z,17.85
2022-08-27T18:23:38.743Z,17.99
2022-08-27T18:26:09.527Z,17.79
2022-08-27T18:28:35.936Z,17.74
2022-08-27T18:31:06.452Z,17.63
2022-08-27T18:33:33.664Z,17.64
2022-08-27T18:36:00.119Z,17.53
2022-08-27T18:38:26.904Z,17.45
2022-08-27T18:40:54.548Z,17.49
2022-08-27T18:43:26.127Z,17.35
2022-08-27T18:45:52.607Z,17.40
2022-08-27T18:48:22.393Z,17.40
2022-08-27T18:50:56.987Z,17.33
2022-08-27T18:53:24.235Z,17.30
2022-08-27T18:55:51.659Z,17.22
2022-08-27T18:58:19.070Z,17.36
2022-08-27T19:00:48.906Z,17.24
2022-08-27T19:03:21.799Z,17.19
2022-08-27T19:05:49.030Z,17.16
2022-08-27T19:08:22.092Z,17.13
2022-08-27T19:10:48.565Z,17.10
2022-08-27T19:13:14.997Z,17.03
2022-08-27T19:15:46.359Z,16.84
2022-08-27T19:18:13.033Z,16.72
2022-08-27T19:20:39.675Z,16.54
2022-08-27T19:23:06.102Z,16.30
2022-08-27T19:25:32.692Z,16.12
2022-08-27T19:27:59.179Z,16.41
2022-08-27T19:30:25.670Z,16.30
2022-08-27T19:32:55.071Z,16.20
2022-08-27T19:35:23.642Z,16.48
2022-08-27T19:37:52.940Z,16.45
2022-08-27T19:40:21.758Z,16.44
2022-08-27T19:42:48.524Z,16.41
2022-08-27T19:45:14.952Z,16.35
2022-08-27T19:47:41.356Z,16.27
2022-08-27T19:50:08.276Z,15.99
2022-08-27T19:52:35.223Z,16.07
2022-08-27T19:55:13.910Z,16.40
2022-08-27T19:57:41.577Z,16.29
2022-08-27T20:00:10.523Z,16.28
2022-08-27T20:02:37.064Z,16.27
2022-08-27T20:05:17.883Z,16.28
2022-08-27T20:07:49.784Z,16.34
2022-08-27T20:10:18.472Z,16.43
2022-08-27T20:12:45.192Z,16.38
2022-08-27T20:15:12.359Z,16.21
2022-08-27T20:17:39.787Z,16.12
2022-08-27T20:20:07.238Z,15.93
2022-08-27T20:22:33.633Z,15.98
2022-08-27T20:25:00.133Z,15.91
2022-08-27T20:27:26.689Z,15.92
2022-08-27T20:29:54.713Z,15.96
2022-08-27T20:32:21.784Z,15.74
2022-08-27T20:34:48.715Z,15.72
2022-08-27T20:37:17.194Z,15.91
2022-08-27T20:39:43.847Z,15.94
2022-08-27T20:42:11.160Z,16.04
2022-08-27T20:44:38.384Z,16.07
2022-08-27T20:47:05.217Z,16.12
2022-08-27T20:49:32.215Z,16.03
2022-08-27T20:52:03.054Z,15.84
2022-08-27T20:54:31.440Z,15.84
2022-08-27T20:56:57.912Z,15.83
2022-08-27T20:59:42.763Z,15.86
2022-08-27T21:02:11.661Z,15.96
2022-08-27T21:04:45.555Z,15.95
2022-08-27T21:07:12.895Z,15.98
2022-08-27T21:09:41.687Z,16.01
2022-08-27T21:12:25.889Z,16.06
2022-08-27T21:14:54.905Z,16.09
2022-08-27T21:17:24.219Z,16.29
2022-08-27T21:19:50.732Z,16.19
2022-08-27T21:22:17.142Z,16.23
2022-08-27T21:24:43.592Z,16.20
2022-08-27T21:27:09.994Z,16.26
2022-08-27T21:29:36.774Z,16.22
2022-08-27T21:32:03.528Z,16.23
2022-08-27T21:34:31.011Z,16.08
2022-08-27T21:36:58.157Z,16.03
2022-08-27T21:39:24.566Z,16.02
2022-08-27T21:41:51.012Z,15.89
2022-08-27T21:44:17.400Z,15.77
2022-08-27T21:46:43.804Z,15.82
2022-08-27T21:49:10.427Z,15.74
2022-08-27T21:51:36.871Z,15.78
2022-08-27T21:54:03.750Z,15.72
2022-08-27T21:56:31.773Z,15.69
2022-08-27T21:58:58.176Z,15.61
2022-08-27T22:01:24.673Z,15.60
2022-08-27T22:03:51.572Z,15.52
2022-08-27T22:06:19.167Z,15.56
2022-08-27T22:08:45.728Z,15.63
2022-08-27T22:11:12.545Z,15.71
2022-08-27T22:13:39.587Z,15.69
2022-08-27T22:16:09.287Z,15.71
2022-08-27T22:18:36.239Z,15.58
2022-08-27T22:21:05.916Z,15.44
2022-08-27T22:23:32.411Z,15.34
2022-08-27T22:25:58.844Z,15.17
2022-08-27T22:28:25.616Z,15.30
2022-08-27T22:30:52.119Z,15.20
2022-08-27T22:33:18.914Z,15.15
2022-08-27T22:35:45.395Z,15.00
2022-08-27T22:38:12.216Z,14.80
2022-08-27T22:40:39.290Z,14.89
2022-08-27T22:43:05.898Z,15.10
2022-08-27T22:45:33.772Z,15.16
2022-08-27T22:48:00.398Z,14.88
2022-08-27T22:50:26.959Z,15.13
2022-08-27T22:52:53.467Z,15.20
2022-08-27T22:55:22.489Z,15.02
2022-08-27T22:57:51.289Z,15.06
2022-08-27T23:00:31.259Z,15.05
2022-08-27T23:02:58.853Z,14.98
2022-08-27T23:05:26.338Z,15.02
2022-08-27T23:07:54.653Z,14.94
2022-08-27T23:10:24.022Z,14.89
2022-08-27T23:12:53.433Z,14.73
2022-08-27T23:15:21.704Z,14.49
2022-08-27T23:17:48.141Z,14.43
2022-08-27T23:20:15.722Z,14.36
2022-08-27T23:22:42.639Z,14.39
2022-08-27T23:25:29.720Z,14.42
2022-08-27T23:27:59.608Z,14.33
2022-08-27T23:30:27.877Z,14.15
2022-08-27T23:32:55.473Z,14.03
2022-08-27T23:35:24.354Z,13.66
2022-08-27T23:37:51.733Z,13.71
2022-08-27T23:40:19.871Z,13.82
2022-08-27T23:42:47.483Z,13.91
2022-08-27T23:45:18.419Z,13.80
2022-08-27T23:47:46.388Z,13.78
2022-08-27T23:50:13.024Z,13.67
2022-08-27T23:52:40.251Z,13.60
2022-08-27T23:55:08.048Z,13.46
2022-08-27T23:57:34.728Z,13.49
